createdAt,value
2022-08-02T00:07:52.233Z,3.20
2022-08-02T00:12:14.826Z,3.50
2022-08-02T00:17:01.150Z,3.50
2022-08-02T00:25:55.009Z,3.10
2022-08-02T00:39:35.149Z,3.20
2022-08-02T00:44:09.327Z,3.60
2022-08-02T00:48:44.506Z,4.50
2022-08-02T00:53:16.801Z,3.80
2022-08-02T00:57:50.134Z,3.70
2022-08-02T01:02:23.260Z,3.60
2022-08-02T01:07:13.035Z,3.40
2022-08-02T01:12:02.684Z,3.80
2022-08-02T01:16:49.461Z,3.80
2022-08-02T01:21:21.790Z,4.60
2022-08-02T01:30:33.462Z,4.10
2022-08-02T01:35:11.478Z,4.00
2022-08-02T01:39:38.479Z,5.60
2022-08-02T01:44:11.468Z,4.70
2022-08-02T01:48:39.567Z,4.00
2022-08-02T01:53:12.557Z,3.90
2022-08-02T01:57:45.450Z,4.90
2022-08-02T02:02:32.645Z,4.40
2022-08-02T02:07:06.079Z,4.20
2022-08-02T02:12:06.216Z,3.80
2022-08-02T02:16:32.318Z,4.30
2022-08-02T02:25:36.002Z,4.10
2022-08-02T02:30:27.564Z,4.50
2022-08-02T02:34:59.248Z,5.40
2022-08-02T02:39:32.222Z,4.90
2022-08-02T02:44:05.166Z,4.20
2022-08-02T02:54:32.224Z,4.70
2022-08-02T02:58:45.760Z,4.00
2022-08-02T03:03:33.935Z,3.60
2022-08-02T03:08:06.438Z,4.20
2022-08-02T03:12:53.157Z,3.30
2022-08-02T03:17:26.110Z,3.90
2022-08-02T03:22:04.736Z,3.80
2022-08-02T03:26:50.883Z,3.20
2022-08-02T03:31:36.001Z,2.70
2022-08-02T03:36:22.258Z,2.40
2022-08-02T03:41:09.312Z,2.00
2022-08-02T03:45:41.684Z,2.50
2022-08-02T03:50:14.892Z,2.10
2022-08-02T03:59:21.108Z,2.10
2022-08-02T04:03:53.917Z,2.10
2022-08-02T04:08:35.615Z,2.30
2022-08-02T04:13:04.635Z,2.60
2022-08-02T04:17:50.828Z,2.30
2022-08-02T04:22:37.249Z,1.90
2022-08-02T04:27:50.701Z,1.80
2022-08-02T04:32:17.533Z,1.30
2022-08-02T04:36:58.935Z,2.10
2022-08-02T04:41:55.719Z,1.00
2022-08-02T04:46:30.220Z,1.50
2022-08-02T04:51:03.024Z,1.60
2022-08-02T04:55:50.066Z,1.30
2022-08-02T05:00:23.158Z,1.60
2022-08-02T05:04:56.651Z,1.50
2022-08-02T05:09:29.567Z,1.30
2022-08-02T05:14:15.668Z,1.90
2022-08-02T05:22:54.482Z,1.90
2022-08-02T05:32:08.176Z,1.20
2022-08-02T05:36:53.010Z,1.60
2022-08-02T05:41:38.978Z,1.70
2022-08-02T06:12:40.812Z,1.20
2022-08-02T06:26:15.965Z,1.70
2022-08-02T06:34:59.490Z,1.30
2022-08-02T06:48:05.804Z,1.60
2022-08-02T06:56:44.846Z,1.20
2022-08-02T07:01:21.738Z,1.50
2022-08-02T07:05:23.675Z,1.30
2022-08-02T07:09:33.922Z,1.20
2022-08-02T07:15:07.431Z,1.00
2022-08-02T07:19:49.343Z,1.20
2022-08-02T07:24:16.966Z,1.30
2022-08-02T07:28:54.924Z,1.10
2022-08-02T07:33:38.058Z,1.50
2022-08-02T07:38:10.854Z,1.10
2022-08-02T07:42:43.026Z,1.30
2022-08-02T07:47:16.279Z,1.30
2022-08-02T07:51:29.286Z,1.40
2022-08-02T07:55:49.563Z,1.60
2022-08-02T08:00:16.449Z,1.00
2022-08-02T08:04:49.934Z,1.30
2022-08-02T08:09:23.337Z,1.10
2022-08-02T08:13:55.522Z,1.20
2022-08-02T08:17:53.970Z,1.10
2022-08-02T08:21:50.722Z,2.10
2022-08-02T08:26:24.068Z,1.00
2022-08-02T08:30:40.861Z,1.30
2022-08-02T08:35:07.105Z,1.30
2022-08-02T08:39:57.431Z,1.10
2022-08-02T08:44:45.302Z,1.00
2022-08-02T08:49:18.436Z,1.20
2022-08-02T08:53:51.238Z,1.40
2022-08-02T08:58:16.025Z,1.50
2022-08-02T09:02:48.720Z,1.80
2022-08-02T09:07:21.563Z,1.10
2022-08-02T09:11:54.764Z,1.00
2022-08-02T09:16:11.314Z,1.20
2022-08-02T09:20:46.274Z,1.50
2022-08-02T09:25:00.759Z,1.10
2022-08-02T09:29:34.567Z,1.80
2022-08-02T09:34:30.630Z,1.50
2022-08-02T09:39:17.224Z,1.30
2022-08-02T09:44:03.353Z,1.20
2022-08-02T09:48:52.941Z,2.10
2022-08-02T09:53:14.715Z,1.30
2022-08-02T09:57:51.130Z,1.10
2022-08-02T10:02:31.736Z,1.40
2022-08-02T10:06:54.726Z,1.20
2022-08-02T10:11:21.026Z,1.50
2022-08-02T10:16:07.952Z,1.60
2022-08-02T10:20:32.783Z,4.80
2022-08-02T10:25:13.305Z,1.10
2022-08-02T10:29:53.706Z,1.60
2022-08-02T10:33:59.227Z,1.30
2022-08-02T10:38:15.243Z,1.00
2022-08-02T10:43:24.599Z,1.20
2022-08-02T10:47:55.725Z,1.80
2022-08-02T10:52:36.423Z,3.10
2022-08-02T11:02:11.203Z,1.00
2022-08-02T11:07:09.835Z,1.40
2022-08-02T11:11:54.014Z,1.20
2022-08-02T11:21:11.174Z,1.70
2022-08-02T11:25:32.092Z,2.40
2022-08-02T11:30:26.628Z,1.80
2022-08-02T11:35:03.562Z,2.30
2022-08-02T11:39:32.094Z,1.80
2022-08-02T11:44:05.024Z,1.60
2022-08-02T11:48:47.871Z,2.10
2022-08-02T11:52:52.870Z,2.70
2022-08-02T11:58:04.761Z,1.40
2022-08-02T12:02:17.107Z,1.40
2022-08-02T12:06:37.710Z,2.40
2022-08-02T12:11:10.845Z,1.60
2022-08-02T12:15:32.275Z,2.00
2022-08-02T12:19:59.201Z,2.20
2022-08-02T12:24:16.955Z,1.60
2022-08-02T12:33:29.111Z,1.80
2022-08-02T12:37:58.527Z,1.20
2022-08-02T12:42:32.811Z,3.30
2022-08-02T12:46:57.886Z,2.20
2022-08-02T12:52:04.863Z,2.20
2022-08-02T12:56:16.259Z,3.30
2022-08-02T13:00:53.163Z,2.00
2022-08-02T13:05:01.440Z,1.70
2022-08-02T13:09:29.371Z,1.20
2022-08-02T13:13:52.987Z,1.50
2022-08-02T13:22:53.861Z,4.10
2022-08-02T13:27:20.809Z,3.10
2022-08-02T13:31:39.831Z,2.50
2022-08-02T13:36:00.123Z,1.70
2022-08-02T13:40:21.729Z,1.30
2022-08-02T13:44:55.630Z,1.30
2022-08-02T13:49:51.058Z,1.10
2022-08-02T13:54:25.170Z,1.20
2022-08-02T13:58:51.408Z,1.90
2022-08-02T14:18:13.123Z,2.70
2022-08-02T14:22:51.516Z,4.70
2022-08-02T14:27:24.546Z,3.00
2022-08-02T14:31:57.041Z,2.50
2022-08-02T14:36:31.223Z,6.20
2022-08-02T14:41:17.407Z,2.00
2022-08-02T14:46:03.625Z,1.10
2022-08-02T14:50:36.706Z,1.80
2022-08-02T15:04:59.740Z,1.70
2022-08-02T15:09:27.371Z,1.90
2022-08-02T15:13:58.839Z,1.80
2022-08-02T15:18:26.761Z,2.40
2022-08-02T15:22:59.710Z,2.10
2022-08-02T15:27:32.632Z,1.80
2022-08-02T15:31:49.064Z,1.50
2022-08-02T15:36:35.671Z,1.30
2022-08-02T15:41:22.472Z,1.30
2022-08-02T15:46:01.754Z,1.50
2022-08-02T15:50:29.115Z,3.80
2022-08-02T15:54:50.139Z,5.30
2022-08-02T15:59:15.952Z,3.30
2022-08-02T16:03:51.007Z,4.00
2022-08-02T16:08:24.531Z,7.40
2022-08-02T16:12:57.642Z,6.30
2022-08-02T16:17:53.516Z,7.00
2022-08-02T16:22:23.322Z,2.50
2022-08-02T16:26:56.238Z,3.70
2022-08-02T16:31:25.323Z,5.30
2022-08-02T16:40:13.160Z,2.70
2022-08-02T16:44:30.646Z,1.90
2022-08-02T16:48:56.071Z,1.70
2022-08-02T16:53:36.715Z,1.30
2022-08-02T16:58:10.574Z,1.50
2022-08-02T17:02:33.453Z,1.30
2022-08-02T17:07:11.052Z,1.80
2022-08-02T17:11:46.622Z,1.00
2022-08-02T17:16:25.951Z,0.90
2022-08-02T17:25:00.573Z,1.70
2022-08-02T17:29:42.111Z,1.50
2022-08-02T17:51:03.391Z,1.50
2022-08-02T18:00:04.334Z,1.30
2022-08-02T18:13:33.012Z,1.70
2022-08-02T19:09:21.622Z,1.50
2022-08-02T19:44:45.984Z,2.80
2022-08-02T19:49:19.813Z,3.60
2022-08-02T19:53:48.726Z,3.40
2022-08-02T20:07:03.252Z,1.40
2022-08-02T20:24:39.577Z,1.10
2022-08-02T20:33:23.935Z,0.80
